createdAt,value
2023-01-05T00:00:38.471Z,80.56
2023-01-05T00:01:38.401Z,80.46
2023-01-05T00:02:38.414Z,80.35
2023-01-05T00:03:38.345Z,80.46
2023-01-05T00:04:38.431Z,80.46
2023-01-05T00:05:38.322Z,80.46
2023-01-05T00:06:38.315Z,80.35
2023-01-05T00:07:38.317Z,80.25
2023-01-05T00:08:38.299Z,80.15
2023-01-05T00:09:38.278Z,80.15
2023-01-05T00:10:38.273Z,79.94
2023-01-05T00:11:38.261Z,79.84
2023-01-05T00:12:38.251Z,79.74
2023-01-05T00:13:38.249Z,79.74
2023-01-05T00:14:38.247Z,79.84
2023-01-05T00:15:38.204Z,79.74
2023-01-05T00:16:38.260Z,79.64
2023-01-05T00:17:38.221Z,79.64
2023-01-05T00:18:38.183Z,79.74
2023-01-05T00:19:38.178Z,79.74
2023-01-05T00:20:38.157Z,79.64
2023-01-05T00:21:38.156Z,79.74
2023-01-05T00:22:38.133Z,79.84
2023-01-05T00:23:38.121Z,79.84
2023-01-05T00:24:38.108Z,79.84
2023-01-05T00:25:38.123Z,79.74
2023-01-05T00:26:38.100Z,79.74
2023-01-05T00:27:38.095Z,79.74
2023-01-05T00:28:38.083Z,79.74
2023-01-05T00:29:38.065Z,79.64
2023-01-05T00:30:38.113Z,79.64
2023-01-05T00:31:38.120Z,79.84
2023-01-05T00:32:38.026Z,79.84
2023-01-05T00:33:38.033Z,79.74
2023-01-05T00:34:38.016Z,79.74
2023-01-05T00:35:37.994Z,79.84
2023-01-05T00:36:38.011Z,79.84
2023-01-05T00:37:38.023Z,79.84
2023-01-05T00:38:37.975Z,79.53
2023-01-05T00:39:37.956Z,79.64
2023-01-05T00:40:37.951Z,79.53
2023-01-05T00:41:37.931Z,79.53
2023-01-05T00:42:37.952Z,79.43
2023-01-05T00:43:37.918Z,79.43
2023-01-05T00:44:37.908Z,79.33
2023-01-05T00:45:37.975Z,79.23
2023-01-05T00:46:37.886Z,79.33
2023-01-05T00:47:37.869Z,79.43
2023-01-05T00:48:37.885Z,79.33
2023-01-05T00:49:37.871Z,79.43
2023-01-05T00:50:37.833Z,79.43
2023-01-05T00:51:37.836Z,79.23
2023-01-05T00:52:37.830Z,79.33
2023-01-05T00:53:37.806Z,79.33
2023-01-05T00:54:37.961Z,79.33
2023-01-05T00:55:37.804Z,79.23
2023-01-05T00:56:37.784Z,79.27
2023-01-05T00:57:37.793Z,79.37
2023-01-05T00:58:37.750Z,79.47
2023-01-05T00:59:37.746Z,79.37
2023-01-05T01:00:42.286Z,79.47
2023-01-05T01:01:37.901Z,79.37
2023-01-05T01:02:37.715Z,79.37
2023-01-05T01:03:37.813Z,79.37
2023-01-05T01:04:37.715Z,79.27
2023-01-05T01:05:37.682Z,79.16
2023-01-05T01:06:37.667Z,79.27
2023-01-05T01:07:37.667Z,79.27
2023-01-05T01:08:37.667Z,79.16
2023-01-05T01:09:37.644Z,79.06
2023-01-05T01:10:37.632Z,79.06
2023-01-05T01:11:37.620Z,79.06
2023-01-05T01:12:37.606Z,79.16
2023-01-05T01:13:37.624Z,79.16
2023-01-05T01:14:37.587Z,79.06
2023-01-05T01:15:37.579Z,79.06
2023-01-05T01:16:37.618Z,78.96
2023-01-05T01:17:37.582Z,78.75
2023-01-05T01:18:37.553Z,78.75
2023-01-05T01:19:37.557Z,78.65
2023-01-05T01:20:37.558Z,78.75
2023-01-05T01:21:37.521Z,78.75
2023-01-05T01:22:37.519Z,78.86
2023-01-05T01:23:37.495Z,78.86
2023-01-05T01:24:37.492Z,78.86
2023-01-05T01:25:37.504Z,78.96
2023-01-05T01:26:37.460Z,78.96
2023-01-05T01:27:37.465Z,78.86
2023-01-05T01:28:37.449Z,78.75
2023-01-05T01:29:37.430Z,78.86
2023-01-05T01:30:37.474Z,78.75
2023-01-05T01:31:37.418Z,78.75
2023-01-05T01:32:37.405Z,78.65
2023-01-05T01:33:37.415Z,78.75
2023-01-05T01:34:37.376Z,78.75
2023-01-05T01:35:37.375Z,78.86
2023-01-05T01:36:37.368Z,78.75
2023-01-05T01:37:37.354Z,78.75
2023-01-05T01:38:37.334Z,78.75
2023-01-05T01:39:37.335Z,78.75
2023-01-05T01:40:37.307Z,78.75
2023-01-05T01:41:37.314Z,78.65
2023-01-05T01:42:37.292Z,78.65
2023-01-05T01:43:37.276Z,78.75
2023-01-05T01:44:37.273Z,78.65
2023-01-05T01:45:37.297Z,78.75
2023-01-05T01:46:37.273Z,78.75
2023-01-05T01:47:37.252Z,78.86
2023-01-05T01:48:37.226Z,78.96
2023-01-05T01:49:37.230Z,78.86
2023-01-05T01:50:37.216Z,78.86
2023-01-05T01:51:37.197Z,78.96
2023-01-05T01:52:37.213Z,79.06
2023-01-05T01:53:37.175Z,79.16
2023-01-05T01:54:37.189Z,79.16
2023-01-05T01:55:37.166Z,79.16
2023-01-05T01:56:37.152Z,79.27
2023-01-05T01:57:37.141Z,79.16
2023-01-05T01:58:37.138Z,79.27
2023-01-05T01:59:37.110Z,79.27
2023-01-05T02:00:37.132Z,79.27
2023-01-05T02:01:37.208Z,79.37
2023-01-05T02:02:37.238Z,79.27
2023-01-05T02:03:37.092Z,79.37
2023-01-05T02:04:37.122Z,79.30
2023-01-05T02:05:37.073Z,79.41
2023-01-05T02:06:37.048Z,79.41
2023-01-05T02:07:37.038Z,79.30
2023-01-05T02:08:37.044Z,79.30
2023-01-05T02:09:37.017Z,79.27
2023-01-05T02:10:37.000Z,79.27
2023-01-05T02:11:36.987Z,79.30
2023-01-05T02:12:36.978Z,79.30
2023-01-05T02:13:36.998Z,79.27
2023-01-05T02:14:36.952Z,79.30
2023-01-05T02:15:36.961Z,79.41
2023-01-05T02:16:36.943Z,79.30
2023-01-05T02:17:36.934Z,79.30
2023-01-05T02:18:36.908Z,79.30
2023-01-05T02:19:36.934Z,79.30
2023-01-05T02:20:36.923Z,79.41
2023-01-05T02:21:36.899Z,79.41
2023-01-05T02:22:36.871Z,79.41
2023-01-05T02:23:36.862Z,79.20
2023-01-05T02:24:36.857Z,79.20
2023-01-05T02:25:36.856Z,79.20
2023-01-05T02:26:36.829Z,79.20
2023-01-05T02:27:36.825Z,79.30
2023-01-05T02:28:36.815Z,79.20
2023-01-05T02:29:36.812Z,79.30
2023-01-05T02:30:36.825Z,79.30
2023-01-05T02:31:36.787Z,79.41
2023-01-05T02:32:36.773Z,79.41
2023-01-05T02:33:36.755Z,79.30
2023-01-05T02:34:36.755Z,79.30
2023-01-05T02:35:36.734Z,79.41
2023-01-05T02:36:36.712Z,79.41
2023-01-05T02:37:36.935Z,79.50
2023-01-05T02:38:36.730Z,79.50
2023-01-05T02:39:36.698Z,79.41
2023-01-05T02:40:36.696Z,79.41
2023-01-05T02:41:36.670Z,79.41
2023-01-05T02:42:36.658Z,79.41
2023-01-05T02:43:36.644Z,79.50
2023-01-05T02:44:36.672Z,79.50
2023-01-05T02:45:36.626Z,79.50
2023-01-05T02:46:36.677Z,79.50
2023-01-05T02:47:36.594Z,79.30
2023-01-05T02:48:36.604Z,79.41
2023-01-05T02:49:36.585Z,79.30
2023-01-05T02:50:36.588Z,79.41
2023-01-05T02:51:36.565Z,79.41
2023-01-05T02:52:36.548Z,79.41
2023-01-05T02:53:36.528Z,79.50
2023-01-05T02:54:36.523Z,79.41
2023-01-05T02:55:36.508Z,79.41
2023-01-05T02:56:36.515Z,79.41
2023-01-05T02:57:36.498Z,79.41
2023-01-05T02:58:36.479Z,79.50
2023-01-05T02:59:36.482Z,79.50
2023-01-05T03:00:36.461Z,79.41
2023-01-05T03:01:36.534Z,79.44
2023-01-05T03:02:36.608Z,79.44
2023-01-05T03:03:36.549Z,79.54
2023-01-05T03:04:36.457Z,79.44
2023-01-05T03:05:36.408Z,79.44
2023-01-05T03:06:36.410Z,79.44
2023-01-05T03:07:36.386Z,79.54
2023-01-05T03:08:36.375Z,79.44
2023-01-05T03:09:36.355Z,79.34
2023-01-05T03:10:36.363Z,79.34
2023-01-05T03:11:36.328Z,79.34
2023-01-05T03:12:36.321Z,79.34
2023-01-05T03:13:36.317Z,79.24
2023-01-05T03:14:36.315Z,79.34
2023-01-05T03:15:36.358Z,79.34
2023-01-05T03:16:36.307Z,79.34
2023-01-05T03:17:36.281Z,79.44
2023-01-05T03:18:36.275Z,79.44
2023-01-05T03:19:36.258Z,79.44
2023-01-05T03:20:36.251Z,79.44
2023-01-05T03:21:36.232Z,79.54
2023-01-05T03:22:36.215Z,79.54
2023-01-05T03:23:36.220Z,79.54
2023-01-05T03:24:36.223Z,79.54
2023-01-05T03:25:36.175Z,79.54
2023-01-05T03:26:36.173Z,79.54
2023-01-05T03:27:36.153Z,79.54
2023-01-05T03:28:36.158Z,79.54
2023-01-05T03:29:36.156Z,79.64
2023-01-05T03:30:36.232Z,79.75
2023-01-05T03:31:36.117Z,79.75
2023-01-05T03:32:36.100Z,79.64
2023-01-05T03:33:36.099Z,79.75
2023-01-05T03:34:36.086Z,79.75
2023-01-05T03:35:36.096Z,79.85
2023-01-05T03:36:36.066Z,79.85
2023-01-05T03:37:36.050Z,79.96
2023-01-05T03:38:36.052Z,80.05
2023-01-05T03:39:36.045Z,80.16
2023-01-05T03:40:36.032Z,80.26
2023-01-05T03:41:36.004Z,80.26
2023-01-05T03:42:36.014Z,80.26
2023-01-05T03:43:35.999Z,80.26
2023-01-05T03:44:36.006Z,80.36
2023-01-05T03:45:35.974Z,80.36
2023-01-05T03:46:36.061Z,80.46
2023-01-05T03:47:35.961Z,80.46
2023-01-05T03:48:35.955Z,80.46
2023-01-05T03:49:35.918Z,80.57
2023-01-05T03:50:35.917Z,80.57
2023-01-05T03:51:41.479Z,80.36
2023-01-05T03:52:35.910Z,80.46
2023-01-05T03:53:35.907Z,80.57
2023-01-05T03:54:35.877Z,80.57
2023-01-05T03:55:35.867Z,80.57
2023-01-05T03:56:35.869Z,80.57
2023-01-05T03:57:35.843Z,80.67
2023-01-05T03:58:35.823Z,80.67
2023-01-05T03:59:35.830Z,80.57
2023-01-05T04:00:35.801Z,80.57
2023-01-05T04:01:36.000Z,80.67
2023-01-05T04:02:35.946Z,80.77
2023-01-05T04:03:35.804Z,80.77
2023-01-05T04:04:35.762Z,80.77
2023-01-05T04:05:35.771Z,80.88
2023-01-05T04:06:35.736Z,80.88
2023-01-05T04:07:35.739Z,80.88
2023-01-05T04:08:35.747Z,80.88
2023-01-05T04:09:35.705Z,80.88
2023-01-05T04:10:35.731Z,81.08
2023-01-05T04:11:35.676Z,81.08
2023-01-05T04:12:35.674Z,81.08
2023-01-05T04:13:35.674Z,81.18
2023-01-05T04:14:35.665Z,81.18
2023-01-05T04:15:35.744Z,81.18
2023-01-05T04:16:35.766Z,81.08
2023-01-05T04:17:35.619Z,81.18
2023-01-05T04:18:35.614Z,81.18
2023-01-05T04:19:35.595Z,81.18
2023-01-05T04:20:35.583Z,81.29
2023-01-05T04:21:35.571Z,81.29
2023-01-05T04:22:35.566Z,81.29
2023-01-05T04:23:35.558Z,81.38
2023-01-05T04:24:35.582Z,81.49
2023-01-05T04:25:35.567Z,81.49
2023-01-05T04:26:35.542Z,81.59
2023-01-05T04:27:35.512Z,81.70
2023-01-05T04:28:35.496Z,82.00
2023-01-05T04:29:35.545Z,82.31
2023-01-05T04:30:35.487Z,82.51
2023-01-05T04:31:35.550Z,82.82
2023-01-05T04:32:35.465Z,83.06
2023-01-05T04:33:35.462Z,83.17
2023-01-05T04:34:35.433Z,83.37
2023-01-05T04:35:35.416Z,83.47
2023-01-05T04:36:35.456Z,83.68
2023-01-05T04:37:35.415Z,83.98
2023-01-05T04:38:35.386Z,84.09
2023-01-05T04:39:35.390Z,84.39
2023-01-05T04:40:35.379Z,84.50
2023-01-05T04:41:35.399Z,84.60
2023-01-05T04:42:35.356Z,84.53
2023-01-05T04:43:35.338Z,84.64
2023-01-05T04:44:35.329Z,84.95
2023-01-05T04:45:35.326Z,84.95
2023-01-05T04:46:35.345Z,85.05
2023-01-05T04:47:35.295Z,85.15
2023-01-05T04:48:35.274Z,85.25
2023-01-05T04:49:35.261Z,85.25
2023-01-05T04:50:35.263Z,85.46
2023-01-05T04:51:35.293Z,85.77
2023-01-05T04:52:35.243Z,85.97
2023-01-05T04:53:35.228Z,86.07
2023-01-05T04:54:35.209Z,86.18
2023-01-05T04:55:35.206Z,86.28
2023-01-05T04:56:35.211Z,86.38
2023-01-05T04:57:35.164Z,86.48
2023-01-05T04:58:35.164Z,86.58
2023-01-05T04:59:35.169Z,86.79
2023-01-05T05:00:35.154Z,86.79
2023-01-05T05:01:35.254Z,86.79
2023-01-05T05:02:35.230Z,86.90
2023-01-05T05:03:35.209Z,86.93
2023-01-05T05:04:35.110Z,87.04
2023-01-05T05:05:35.117Z,87.14
2023-01-05T05:06:35.079Z,87.14
2023-01-05T05:07:35.069Z,87.24
2023-01-05T05:08:35.072Z,87.24
2023-01-05T05:09:35.053Z,87.34
2023-01-05T05:10:35.037Z,87.34
2023-01-05T05:11:35.031Z,87.34
2023-01-05T05:12:35.026Z,87.45
2023-01-05T05:13:35.018Z,87.45
2023-01-05T05:14:34.993Z,87.55
2023-01-05T05:15:34.976Z,87.55
2023-01-05T05:16:34.976Z,87.65
2023-01-05T05:17:34.962Z,87.76
2023-01-05T05:18:34.981Z,87.85
2023-01-05T05:19:34.948Z,87.85
2023-01-05T05:20:34.925Z,87.96
2023-01-05T05:21:34.906Z,87.85
2023-01-05T05:22:34.915Z,87.85
2023-01-05T05:23:34.893Z,87.85
2023-01-05T05:24:34.894Z,87.85
2023-01-05T05:25:34.875Z,87.85
2023-01-05T05:26:34.865Z,87.76
2023-01-05T05:27:34.863Z,87.85
2023-01-05T05:28:34.835Z,87.85
2023-01-05T05:29:34.856Z,87.85
2023-01-05T05:30:34.813Z,87.76
2023-01-05T05:31:34.851Z,87.76
2023-01-05T05:32:38.204Z,87.85
2023-01-05T05:33:34.842Z,87.85
2023-01-05T05:34:34.782Z,87.85
2023-01-05T05:35:34.770Z,87.96
2023-01-05T05:36:34.744Z,87.96
2023-01-05T05:37:34.742Z,87.96
2023-01-05T05:38:34.723Z,87.96
2023-01-05T05:39:34.738Z,87.96
2023-01-05T05:40:34.708Z,88.06
2023-01-05T05:41:34.704Z,88.17
2023-01-05T05:42:34.681Z,88.17
2023-01-05T05:43:34.681Z,88.17
2023-01-05T05:44:34.701Z,88.27
2023-01-05T05:45:34.659Z,88.27
2023-01-05T05:46:34.798Z,88.37
2023-01-05T05:47:34.637Z,88.37
2023-01-05T05:48:34.617Z,88.37
2023-01-05T05:49:34.622Z,88.37
2023-01-05T05:50:34.610Z,88.37
2023-01-05T05:51:34.611Z,88.37
2023-01-05T05:52:34.600Z,88.47
2023-01-05T05:53:34.601Z,88.37
2023-01-05T05:54:34.556Z,88.37
2023-01-05T05:55:34.552Z,88.27
2023-01-05T05:56:34.547Z,88.37
2023-01-05T05:57:34.541Z,88.37
2023-01-05T05:58:34.530Z,88.37
2023-01-05T05:59:34.507Z,88.37
2023-01-05T06:00:34.499Z,88.37
2023-01-05T06:01:34.623Z,88.37
2023-01-05T06:02:34.590Z,88.21
2023-01-05T06:03:34.515Z,88.06
2023-01-05T06:04:34.453Z,88.06
2023-01-05T06:05:34.454Z,88.06
2023-01-05T06:06:34.455Z,88.17
2023-01-05T06:07:34.429Z,88.06
2023-01-05T06:08:34.433Z,88.06
2023-01-05T06:09:34.410Z,88.06
2023-01-05T06:10:34.405Z,88.06
2023-01-05T06:11:34.379Z,88.06
2023-01-05T06:12:34.376Z,88.17
2023-01-05T06:13:34.346Z,88.17
2023-01-05T06:14:34.363Z,88.06
2023-01-05T06:15:34.330Z,88.06
2023-01-05T06:16:34.410Z,88.17
2023-01-05T06:17:34.313Z,88.17
2023-01-05T06:18:34.309Z,88.17
2023-01-05T06:19:34.310Z,88.17
2023-01-05T06:20:34.292Z,88.06
2023-01-05T06:21:34.283Z,88.06
2023-01-05T06:22:34.259Z,88.06
2023-01-05T06:23:34.254Z,88.17
2023-01-05T06:24:34.251Z,88.17
2023-01-05T06:25:34.247Z,88.27
2023-01-05T06:26:34.209Z,88.27
2023-01-05T06:27:34.211Z,88.17
2023-01-05T06:28:34.191Z,88.17
2023-01-05T06:29:34.190Z,88.17
2023-01-05T06:30:34.181Z,88.27
2023-01-05T06:31:34.267Z,88.17
2023-01-05T06:32:34.162Z,88.06
2023-01-05T06:33:34.147Z,87.96
2023-01-05T06:34:34.131Z,87.96
2023-01-05T06:35:34.126Z,87.85
2023-01-05T06:36:34.130Z,87.96
2023-01-05T06:37:34.108Z,87.96
2023-01-05T06:38:34.090Z,87.85
2023-01-05T06:39:34.087Z,87.85
2023-01-05T06:40:34.085Z,87.85
2023-01-05T06:41:34.097Z,87.85
2023-01-05T06:42:34.048Z,87.85
2023-01-05T06:43:34.046Z,87.85
2023-01-05T06:44:34.031Z,87.85
2023-01-05T06:45:34.098Z,87.85
2023-01-05T06:46:33.996Z,87.85
2023-01-05T06:47:34.002Z,87.96
2023-01-05T06:48:34.001Z,87.96
2023-01-05T06:49:33.969Z,88.06
2023-01-05T06:50:33.966Z,88.06
2023-01-05T06:51:33.965Z,88.06
2023-01-05T06:52:33.938Z,88.06
2023-01-05T06:53:33.978Z,88.06
2023-01-05T06:54:33.928Z,88.06
2023-01-05T06:55:33.927Z,88.17
2023-01-05T06:56:33.950Z,88.17
2023-01-05T06:57:33.914Z,88.27
2023-01-05T06:58:33.879Z,88.27
2023-01-05T06:59:33.863Z,88.17
2023-01-05T07:00:33.905Z,88.17
2023-01-05T07:01:34.562Z,88.17
2023-01-05T07:02:33.831Z,88.06
2023-01-05T07:03:33.912Z,88.17
2023-01-05T07:04:33.834Z,88.17
2023-01-05T07:05:33.799Z,88.17
2023-01-05T07:06:33.800Z,88.06
2023-01-05T07:07:33.806Z,88.06
2023-01-05T07:08:33.777Z,88.06
2023-01-05T07:09:33.762Z,88.17
2023-01-05T07:10:33.753Z,88.17
2023-01-05T07:11:33.758Z,88.17
2023-01-05T07:12:33.734Z,88.17
2023-01-05T07:13:33.745Z,88.17
2023-01-05T07:14:33.709Z,88.17
2023-01-05T07:15:33.721Z,88.17
2023-01-05T07:16:33.749Z,88.17
2023-01-05T07:17:33.674Z,88.17
2023-01-05T07:18:33.685Z,88.27
2023-01-05T07:19:33.663Z,88.17
2023-01-05T07:20:33.651Z,88.17
2023-01-05T07:21:33.649Z,88.27
2023-01-05T07:22:33.648Z,88.37
2023-01-05T07:23:33.638Z,88.47
2023-01-05T07:24:33.614Z,88.47
2023-01-05T07:25:33.605Z,88.47
2023-01-05T07:26:33.593Z,88.47
2023-01-05T07:27:33.588Z,88.47
2023-01-05T07:28:33.583Z,88.51
2023-01-05T07:29:33.593Z,88.62
2023-01-05T07:30:33.534Z,88.62
2023-01-05T07:31:33.552Z,88.68
2023-01-05T07:32:33.544Z,88.72
2023-01-05T07:33:39.030Z,88.68
2023-01-05T07:34:33.515Z,88.72
2023-01-05T07:35:33.492Z,88.68
2023-01-05T07:36:33.477Z,88.72
2023-01-05T07:37:33.473Z,88.57
2023-01-05T07:38:33.454Z,88.62
2023-01-05T07:39:33.448Z,88.57
2023-01-05T07:40:33.475Z,88.68
2023-01-05T07:41:33.476Z,88.68
2023-01-05T07:42:33.465Z,88.62
2023-01-05T07:43:33.412Z,88.62
2023-01-05T07:44:33.384Z,88.62
2023-01-05T07:45:33.419Z,88.57
2023-01-05T07:46:33.373Z,88.47
2023-01-05T07:47:33.358Z,88.47
2023-01-05T07:48:33.371Z,88.47
2023-01-05T07:49:33.334Z,88.47
2023-01-05T07:50:33.327Z,88.47
2023-01-05T07:51:33.319Z,88.57
2023-01-05T07:52:33.305Z,88.51
2023-01-05T07:53:38.121Z,88.57
2023-01-05T07:54:33.314Z,88.47
2023-01-05T07:55:33.275Z,88.37
2023-01-05T07:56:33.272Z,88.37
2023-01-05T07:57:33.266Z,88.37
2023-01-05T07:58:33.258Z,88.37
2023-01-05T07:59:33.257Z,88.37
2023-01-05T08:00:33.226Z,88.47
2023-01-05T08:01:33.386Z,88.47
2023-01-05T08:02:36.114Z,88.47
2023-01-05T08:03:33.188Z,88.47
2023-01-05T08:04:33.231Z,88.47
2023-01-05T08:05:33.167Z,88.37
2023-01-05T08:06:33.545Z,88.37
2023-01-05T08:07:33.153Z,88.37
2023-01-05T08:08:33.160Z,88.27
2023-01-05T08:09:33.119Z,88.17
2023-01-05T08:10:33.134Z,88.17
2023-01-05T08:11:33.110Z,88.17
2023-01-05T08:12:33.105Z,88.17
2023-01-05T08:13:33.095Z,88.17
2023-01-05T08:14:33.065Z,88.17
2023-01-05T08:15:33.082Z,88.17
2023-01-05T08:16:33.106Z,88.17
2023-01-05T08:17:33.031Z,88.17
2023-01-05T08:18:33.030Z,88.06
2023-01-05T08:19:33.012Z,88.06
2023-01-05T08:20:33.003Z,88.06
2023-01-05T08:21:33.042Z,88.06
2023-01-05T08:22:32.990Z,88.06
2023-01-05T08:23:32.981Z,88.06
2023-01-05T08:24:32.969Z,87.85
2023-01-05T08:25:32.949Z,87.76
2023-01-05T08:26:33.007Z,87.76
2023-01-05T08:27:32.951Z,87.76
2023-01-05T08:28:35.561Z,87.76
2023-01-05T08:29:32.918Z,87.65
2023-01-05T08:30:32.905Z,87.65
2023-01-05T08:31:32.932Z,87.65
2023-01-05T08:32:32.883Z,87.55
2023-01-05T08:33:32.884Z,87.45
2023-01-05T08:34:34.897Z,87.45
2023-01-05T08:35:32.840Z,87.45
2023-01-05T08:36:32.847Z,87.45
2023-01-05T08:37:32.820Z,87.34
2023-01-05T08:38:32.822Z,87.34
2023-01-05T08:39:32.833Z,87.24
2023-01-05T08:40:32.789Z,87.14
2023-01-05T08:41:32.800Z,87.24
2023-01-05T08:42:32.762Z,87.20
2023-01-05T08:43:32.783Z,87.20
2023-01-05T08:44:32.750Z,87.20
2023-01-05T08:45:32.787Z,87.20
2023-01-05T08:46:32.736Z,87.20
2023-01-05T08:47:32.708Z,87.20
2023-01-05T08:48:32.713Z,87.20
2023-01-05T08:49:32.687Z,87.20
2023-01-05T08:50:32.687Z,87.30
2023-01-05T08:51:32.685Z,87.30
2023-01-05T08:52:32.659Z,87.30
2023-01-05T08:53:32.649Z,87.30
2023-01-05T08:54:32.642Z,87.30
2023-01-05T08:55:32.647Z,87.20
2023-01-05T08:56:38.354Z,87.20
2023-01-05T08:57:32.617Z,87.10
2023-01-05T08:58:32.591Z,87.10
2023-01-05T08:59:32.602Z,87.04
2023-01-05T09:00:32.607Z,86.99
2023-01-05T09:01:32.724Z,86.99
2023-01-05T09:02:32.703Z,86.99
2023-01-05T09:03:32.569Z,86.99
2023-01-05T09:04:32.551Z,86.99
2023-01-05T09:05:32.527Z,86.99
2023-01-05T09:06:32.518Z,86.93
2023-01-05T09:07:32.498Z,86.99
2023-01-05T09:08:32.487Z,86.99
2023-01-05T09:09:32.480Z,87.10
2023-01-05T09:10:32.462Z,87.20
2023-01-05T09:11:32.461Z,87.10
2023-01-05T09:12:33.403Z,86.99
2023-01-05T09:13:32.429Z,86.99
2023-01-05T09:14:32.445Z,87.10
2023-01-05T09:15:32.417Z,87.10
2023-01-05T09:17:05.121Z,87.20
2023-01-05T09:17:32.471Z,87.20
2023-01-05T09:18:32.373Z,87.30
2023-01-05T09:19:32.373Z,87.30
2023-01-05T09:20:39.413Z,87.30
2023-01-05T09:21:32.438Z,87.30
2023-01-05T09:22:32.349Z,87.10
2023-01-05T09:23:32.334Z,87.10
2023-01-05T09:24:32.326Z,87.10
2023-01-05T09:25:32.300Z,87.10
2023-01-05T09:26:32.290Z,87.10
2023-01-05T09:27:32.305Z,87.10
2023-01-05T09:28:32.272Z,87.10
2023-01-05T09:29:32.298Z,87.10
2023-01-05T09:30:40.971Z,87.10
2023-01-05T09:31:32.265Z,87.10
2023-01-05T09:32:32.242Z,86.99
2023-01-05T09:33:32.247Z,86.99
2023-01-05T09:34:32.230Z,86.99
2023-01-05T09:35:32.194Z,87.10
2023-01-05T09:36:32.213Z,86.99
2023-01-05T09:37:32.174Z,86.90
2023-01-05T09:38:32.160Z,86.79
2023-01-05T09:39:32.166Z,86.79
2023-01-05T09:40:32.143Z,86.79
2023-01-05T09:41:32.123Z,86.69
2023-01-05T09:42:32.128Z,86.69
2023-01-05T09:43:32.098Z,86.69
2023-01-05T09:44:32.103Z,86.69
2023-01-05T09:45:32.093Z,86.69
2023-01-05T09:46:32.125Z,86.58
2023-01-05T09:47:32.065Z,86.58
2023-01-05T09:48:32.177Z,86.58
2023-01-05T09:49:32.055Z,86.38
2023-01-05T09:50:32.045Z,86.07
2023-01-05T09:51:32.013Z,85.97
2023-01-05T09:52:37.841Z,85.97
2023-01-05T09:53:31.994Z,85.77
2023-01-05T09:54:31.984Z,85.77
2023-01-05T09:55:31.976Z,85.72
2023-01-05T09:57:08.056Z,85.63
2023-01-05T09:57:31.969Z,85.63
2023-01-05T09:58:31.949Z,85.63
2023-01-05T09:59:31.926Z,85.52
2023-01-05T10:00:31.946Z,85.42
2023-01-05T10:01:31.962Z,85.42
2023-01-05T10:02:31.907Z,85.42
2023-01-05T10:04:02.429Z,85.42
2023-01-05T10:04:31.968Z,85.42
2023-01-05T10:05:31.988Z,85.31
2023-01-05T10:06:31.874Z,85.31
2023-01-05T10:07:31.853Z,85.22
2023-01-05T10:08:31.828Z,85.22
2023-01-05T10:09:31.817Z,85.11
2023-01-05T10:10:31.839Z,84.91
2023-01-05T10:11:31.801Z,84.80
2023-01-05T10:12:31.784Z,84.70
2023-01-05T10:13:31.785Z,84.50
2023-01-05T10:14:31.782Z,84.39
2023-01-05T10:15:31.775Z,84.60
2023-01-05T10:16:31.779Z,84.70
2023-01-05T10:17:47.011Z,84.80
2023-01-05T10:18:31.781Z,84.60
2023-01-05T10:19:31.730Z,84.60
2023-01-05T10:20:31.708Z,84.56
2023-01-05T10:21:31.691Z,84.19
2023-01-05T10:22:36.840Z,84.09
2023-01-05T10:23:31.671Z,84.15
2023-01-05T10:24:31.674Z,84.19
2023-01-05T10:25:31.663Z,84.05
2023-01-05T10:26:51.024Z,84.15
2023-01-05T10:27:31.638Z,84.15
2023-01-05T10:28:31.630Z,84.09
2023-01-05T10:29:31.610Z,84.15
2023-01-05T10:30:31.599Z,84.15
2023-01-05T10:31:31.618Z,84.15
2023-01-05T10:32:31.602Z,84.15
2023-01-05T10:33:39.364Z,84.25
2023-01-05T10:34:31.567Z,84.25
2023-01-05T10:35:59.542Z,84.25
2023-01-05T10:37:06.036Z,84.25
2023-01-05T10:37:31.650Z,84.05
2023-01-05T10:38:31.580Z,83.84
2023-01-05T10:39:31.761Z,83.84
2023-01-05T10:40:31.521Z,83.84
2023-01-05T10:41:31.820Z,83.84
2023-01-05T10:42:32.859Z,83.64
2023-01-05T10:43:31.697Z,83.44
2023-01-05T10:44:31.442Z,83.44
2023-01-05T10:45:31.428Z,83.44
2023-01-05T10:46:38.092Z,83.54
2023-01-05T10:47:31.455Z,83.54
2023-01-05T10:48:31.485Z,83.44
2023-01-05T10:49:31.407Z,83.44
2023-01-05T10:50:31.817Z,83.44
2023-01-05T10:51:31.419Z,83.33
2023-01-05T10:52:31.373Z,83.23
2023-01-05T10:53:31.380Z,83.23
2023-01-05T10:54:31.366Z,83.33
2023-01-05T10:55:31.343Z,83.33
2023-01-05T10:56:31.327Z,83.23
2023-01-05T10:57:35.130Z,83.33
2023-01-05T10:58:31.310Z,83.44
2023-01-05T10:59:31.619Z,83.33
2023-01-05T11:00:31.298Z,83.44
2023-01-05T11:01:31.427Z,83.44
2023-01-05T11:02:31.413Z,83.54
2023-01-05T11:03:57.317Z,83.54
2023-01-05T11:04:35.441Z,83.33
2023-01-05T11:05:31.276Z,83.23
2023-01-05T11:06:31.228Z,83.03
2023-01-05T11:07:31.203Z,83.03
2023-01-05T11:08:31.201Z,83.03
2023-01-05T11:09:31.195Z,82.82
2023-01-05T11:10:31.188Z,82.71
2023-01-05T11:11:31.169Z,82.71
2023-01-05T11:12:31.144Z,82.41
2023-01-05T11:13:31.144Z,82.51
2023-01-05T11:14:31.185Z,82.62
2023-01-05T11:15:31.171Z,82.51
2023-01-05T11:16:31.102Z,82.51
2023-01-05T11:17:31.109Z,82.51
2023-01-05T11:18:31.089Z,82.41
2023-01-05T11:19:31.093Z,82.21
2023-01-05T11:20:31.075Z,82.31
2023-01-05T11:21:31.081Z,82.41
2023-01-05T11:22:31.054Z,82.41
2023-01-05T11:23:31.038Z,82.21
2023-01-05T11:24:31.061Z,82.27
2023-01-05T11:25:31.042Z,82.27
2023-01-05T11:26:31.008Z,82.27
2023-01-05T11:27:30.999Z,82.27
2023-01-05T11:28:30.988Z,82.48
2023-01-05T11:29:30.981Z,82.27
2023-01-05T11:30:30.970Z,81.86
2023-01-05T11:31:31.001Z,81.86
2023-01-05T11:32:30.953Z,81.56
2023-01-05T11:33:30.928Z,81.65
2023-01-05T11:34:30.917Z,81.76
2023-01-05T11:35:30.926Z,81.76
2023-01-05T11:36:30.903Z,81.76
2023-01-05T11:37:30.887Z,81.65
2023-01-05T11:38:30.870Z,81.65
2023-01-05T11:39:30.943Z,81.76
2023-01-05T11:40:30.840Z,81.56
2023-01-05T11:41:30.847Z,81.65
2023-01-05T11:42:30.856Z,81.86
2023-01-05T11:43:30.817Z,82.07
2023-01-05T11:44:30.808Z,82.07
2023-01-05T11:45:30.796Z,81.86
2023-01-05T11:46:30.823Z,81.86
2023-01-05T11:47:30.802Z,81.96
2023-01-05T11:48:30.784Z,82.07
2023-01-05T11:49:30.777Z,82.17
2023-01-05T11:50:30.761Z,82.27
2023-01-05T11:51:30.736Z,82.07
2023-01-05T11:52:30.737Z,81.86
2023-01-05T11:53:30.717Z,81.86
2023-01-05T11:54:30.693Z,81.96
2023-01-05T11:55:30.764Z,81.86
2023-01-05T11:56:30.682Z,81.96
2023-01-05T11:57:30.668Z,81.86
2023-01-05T11:58:30.658Z,81.76
2023-01-05T11:59:30.658Z,81.76
2023-01-05T12:00:30.660Z,81.96
2023-01-05T12:01:30.708Z,81.65
2023-01-05T12:02:30.700Z,81.65
2023-01-05T12:03:30.637Z,81.56
2023-01-05T12:04:30.705Z,81.56
2023-01-05T12:05:30.588Z,81.41
2023-01-05T12:06:30.589Z,81.51
2023-01-05T12:07:30.567Z,81.41
2023-01-05T12:08:30.552Z,81.21
2023-01-05T12:09:34.612Z,81.01
2023-01-05T12:10:30.552Z,80.69
2023-01-05T12:11:30.535Z,80.49
2023-01-05T12:12:30.560Z,80.39
2023-01-05T12:13:30.502Z,80.19
2023-01-05T12:14:30.490Z,80.08
2023-01-05T12:15:30.486Z,80.08
2023-01-05T12:16:30.538Z,80.08
2023-01-05T12:17:30.467Z,80.19
2023-01-05T12:18:30.474Z,80.39
2023-01-05T12:19:30.441Z,80.49
2023-01-05T12:20:30.461Z,80.69
2023-01-05T12:21:30.427Z,80.60
2023-01-05T12:22:30.409Z,80.39
2023-01-05T12:23:30.415Z,80.39
2023-01-05T12:24:30.389Z,80.19
2023-01-05T12:25:30.382Z,79.88
2023-01-05T12:26:30.383Z,79.98
2023-01-05T12:27:30.359Z,80.08
2023-01-05T12:28:40.913Z,80.19
2023-01-05T12:34:30.292Z,79.84
2023-01-05T12:35:30.275Z,79.84
2023-01-05T12:36:30.276Z,80.15
2023-01-05T12:37:30.267Z,79.94
2023-01-05T12:38:30.266Z,79.53
2023-01-05T12:39:32.130Z,79.43
2023-01-05T12:40:30.224Z,79.02
2023-01-05T12:41:30.211Z,78.92
2023-01-05T12:42:30.195Z,78.92
2023-01-05T12:43:30.234Z,78.78
2023-01-05T12:44:30.244Z,78.68
2023-01-05T12:45:32.301Z,78.78
2023-01-05T12:46:30.194Z,78.78
2023-01-05T12:47:30.159Z,78.88
2023-01-05T12:48:30.164Z,78.78
2023-01-05T12:49:30.161Z,78.38
2023-01-05T12:50:30.129Z,78.07
2023-01-05T12:51:30.110Z,77.97
2023-01-05T12:52:30.104Z,78.11
2023-01-05T12:53:30.081Z,78.27
2023-01-05T12:54:30.083Z,78.17
2023-01-05T12:55:30.069Z,78.17
2023-01-05T12:56:30.050Z,78.20
2023-01-05T12:57:30.049Z,78.20